Time;durP1;ratioP1;P1;durP2;ratioP2;P2;SDS_P1;SDS_P2;PMS_P1;PMS_P2;Temp;Humidity;BMP_temperature;BMP_pressure;BME280_temperature;BME280_humidity;BME280_pressure;Samples;Min_cycle;Max_cycle;Signal;HPM_P1;HPM_P2
2022/02/11 00:00:50;;;;;;;3.22;2.38;;;;;;;2.23;100.00;98884.56;4169839;28;20716;-71
2022/02/11 00:07:09;;;;;;;4.68;2.50;;;;;;;2.28;100.00;98891.81;4171398;28;20103;-71
2022/02/11 00:09:09;;;;;;;4.38;2.50;;;;;;;2.25;100.00;98896.78;4172038;28;20396;-71
2022/02/11 00:11:09;;;;;;;3.10;2.22;;;;;;;2.27;100.00;98901.94;4171847;28;20044;-71
2022/02/11 00:13:10;;;;;;;4.65;2.55;;;;;;;2.31;100.00;98896.63;4172659;28;20844;-71
2022/02/11 00:15:34;;;;;;;4.47;2.20;;;;;;;2.32;100.00;98893.63;4172461;28;20540;-71
2022/02/11 00:17:31;;;;;;;4.15;2.72;;;;;;;2.30;100.00;98893.09;4171455;28;20053;-71
2022/02/11 00:19:31;;;;;;;4.47;2.65;;;;;;;2.28;100.00;98886.34;4172367;28;20143;-71
2022/02/11 00:21:33;;;;;;;4.68;2.58;;;;;;;2.26;100.00;98892.13;4172042;28;20041;-71
2022/02/11 00:23:36;;;;;;;3.28;2.30;;;;;;;2.25;100.00;98893.25;4171883;28;20069;-71
2022/02/11 00:25:41;;;;;;;3.05;2.13;;;;;;;2.22;100.00;98891.13;4170757;28;20460;-71
2022/02/11 00:34:04;;;;;;;5.18;2.40;;;;;;;2.25;100.00;98877.69;4171859;28;20033;-71
2022/02/11 00:36:08;;;;;;;3.63;2.03;;;;;;;2.25;100.00;98876.88;4172079;28;20041;-71
2022/02/11 00:38:14;;;;;;;3.85;2.63;;;;;;;2.23;100.00;98879.09;4170943;28;20052;-71
2022/02/11 00:40:34;;;;;;;5.30;2.60;;;;;;;2.23;100.00;98881.81;4171894;28;20510;-71
2022/02/11 01:02:48;;;;;;;2.45;2.00;;;;;;;2.02;100.00;98883.47;4171366;28;20048;-71
2022/02/11 01:04:49;;;;;;;3.45;2.45;;;;;;;1.91;100.00;98880.22;4171615;28;20656;-71
2022/02/11 01:06:49;;;;;;;5.28;3.22;;;;;;;1.94;100.00;98882.31;4170148;28;20670;-71
2022/02/11 01:08:52;;;;;;;4.50;2.40;;;;;;;1.92;100.00;98873.63;4171403;28;20106;-71
2022/02/11 01:10:52;;;;;;;3.75;2.67;;;;;;;1.89;100.00;98868.78;4171021;28;20136;-71
2022/02/11 01:12:52;;;;;;;4.30;2.97;;;;;;;1.87;100.00;98862.84;4171041;28;20088;-71
2022/02/11 01:14:54;;;;;;;5.70;2.42;;;;;;;1.91;100.00;98872.03;4171384;28;20207;-71
2022/02/11 01:16:57;;;;;;;4.43;2.90;;;;;;;1.87;100.00;98865.56;4169779;28;20132;-71
2022/02/11 01:19:14;;;;;;;4.25;2.80;;;;;;;1.79;100.00;98878.03;4170586;28;20525;-71
2022/02/11 01:21:22;;;;;;;3.72;2.45;;;;;;;1.71;100.00;98878.78;4171295;28;20719;-71
2022/02/11 01:25:57;;;;;;;5.10;2.80;;;;;;;1.58;100.00;98887.84;4171257;28;20876;-71
2022/02/11 01:34:49;;;;;;;4.45;3.03;;;;;;;1.41;100.00;98888.50;4170462;28;20056;-71
2022/02/11 01:54:33;;;;;;;3.72;2.70;;;;;;;1.01;100.00;98877.38;4169742;28;20401;-73
2022/02/11 02:01:00;;;;;;;1.80;1.52;;;;;;;0.94;100.00;98887.06;4170510;28;20049;-72
2022/02/11 02:16:57;;;;;;;4.65;2.30;;;;;;;0.54;100.00;98890.31;4170505;28;20032;-71
2022/02/11 02:25:27;;;;;;;3.60;2.47;;;;;;;0.47;100.00;98887.19;4170266;28;20040;-71
2022/02/11 02:56:56;;;;;;;4.07;1.70;;;;;;;0.21;100.00;98883.31;4169047;28;20051;-72
2022/02/11 02:59:04;;;;;;;2.80;1.95;;;;;;;0.22;100.00;98893.91;4169662;28;20498;-72
2022/02/11 03:01:32;;;;;;;3.17;2.05;;;;;;;0.20;100.00;98884.44;4169421;28;20400;-72
2022/02/11 04:55:25;;;;;;;3.60;2.00;;;;;;;-0.20;100.00;98984.66;4169838;28;20136;-71
2022/02/11 04:59:50;;;;;;;8.35;2.42;;;;;;;-0.12;100.00;98978.56;4169335;28;20056;-71
2022/02/11 05:01:50;;;;;;;4.20;2.28;;;;;;;-0.08;100.00;98986.94;4169708;28;20401;-72
2022/02/11 05:03:50;;;;;;;3.13;2.13;;;;;;;-0.09;100.00;98988.81;4169672;28;20299;-72
2022/02/11 05:05:51;;;;;;;3.70;1.98;;;;;;;-0.08;100.00;98976.88;4170470;28;20100;-72
2022/02/11 05:07:51;;;;;;;3.88;2.08;;;;;;;-0.09;100.00;98977.94;4169545;28;20467;-72
2022/02/11 05:09:52;;;;;;;3.58;2.28;;;;;;;-0.11;100.00;98982.06;4169741;28;20037;-72
2022/02/11 05:11:52;;;;;;;4.00;2.47;;;;;;;-0.09;100.00;98994.28;4170720;28;20037;-72
2022/02/11 05:13:52;;;;;;;3.15;1.85;;;;;;;-0.07;100.00;98994.81;4170131;28;20657;-72
2022/02/11 05:15:53;;;;;;;3.92;2.42;;;;;;;-0.06;100.00;98987.44;4170309;28;20041;-72
2022/02/11 05:17:54;;;;;;;4.25;2.42;;;;;;;-0.08;100.00;98976.88;4169920;28;20055;-72
2022/02/11 05:19:54;;;;;;;3.50;2.45;;;;;;;-0.04;100.00;98971.63;4170308;28;20439;-72
2022/02/11 05:21:55;;;;;;;2.80;2.20;;;;;;;-0.03;100.00;98960.44;4170641;28;20445;-71
2022/02/11 05:23:55;;;;;;;4.47;1.60;;;;;;;-0.04;100.00;98952.59;4170763;28;20053;-72
2022/02/11 05:25:55;;;;;;;3.20;2.25;;;;;;;-0.02;100.00;98955.81;4170173;28;20576;-72
2022/02/11 05:27:55;;;;;;;2.75;2.00;;;;;;;-0.01;100.00;98944.63;4169632;28;20067;-72
2022/02/11 05:29:56;;;;;;;3.65;1.70;;;;;;;-0.03;100.00;98938.69;4171276;28;20758;-72
2022/02/11 05:31:56;;;;;;;2.42;1.65;;;;;;;0.00;100.00;98948.19;4171388;28;20124;-72
2022/02/11 05:33:56;;;;;;;3.47;1.60;;;;;;;-0.04;100.00;98947.16;4169787;28;20048;-72
2022/02/11 05:35:58;;;;;;;2.15;1.50;;;;;;;-0.04;100.00;98955.31;4170859;28;20053;-72
2022/02/11 05:37:59;;;;;;;3.20;1.50;;;;;;;-0.06;100.00;98965.69;4170446;28;20481;-72
2022/02/11 05:39:59;;;;;;;2.28;1.52;;;;;;;-0.09;100.00;98958.91;4170590;28;20295;-71
2022/02/11 05:41:59;;;;;;;2.70;1.92;;;;;;;-0.11;100.00;98965.75;4170807;28;20425;-71
2022/02/11 05:44:00;;;;;;;1.95;1.50;;;;;;;-0.16;100.00;98966.66;4170142;28;20045;-72
2022/02/11 05:46:00;;;;;;;3.35;1.88;;;;;;;-0.17;100.00;98966.94;4170488;28;20039;-72
2022/02/11 05:48:00;;;;;;;4.15;1.77;;;;;;;-0.20;100.00;98962.91;4170553;28;20043;-73
2022/02/11 05:50:03;;;;;;;4.70;1.92;;;;;;;-0.24;100.00;98966.53;4170104;28;20655;-73
2022/02/11 05:52:04;;;;;;;3.25;1.40;;;;;;;-0.21;100.00;98976.81;4119776;28;20068;-72
2022/02/11 05:54:04;;;;;;;1.83;1.48;;;;;;;-0.26;100.00;98977.66;4169908;28;20048;-72
2022/02/11 05:56:04;;;;;;;3.83;1.60;;;;;;;-0.26;100.00;98983.09;4170209;28;20762;-72
2022/02/11 05:58:05;;;;;;;3.70;1.63;;;;;;;-0.32;100.00;98985.13;4169749;28;20041;-72
2022/02/11 06:00:06;;;;;;;1.90;1.45;;;;;;;-0.37;100.00;98987.91;4169367;28;20040;-72
2022/02/11 06:02:06;;;;;;;2.88;1.73;;;;;;;-0.39;100.00;99002.91;4170836;28;20029;-72
2022/02/11 06:04:06;;;;;;;2.60;1.40;;;;;;;-0.45;100.00;99004.88;4170079;28;20288;-72
2022/02/11 06:06:07;;;;;;;4.95;2.00;;;;;;;-0.46;100.00;99013.31;4171452;28;20040;-72
2022/02/11 06:08:07;;;;;;;6.97;1.80;;;;;;;-0.49;100.00;99013.91;4171017;28;20052;-72
2022/02/11 06:10:07;;;;;;;4.72;2.55;;;;;;;-0.53;100.00;99004.72;4170165;28;20043;-72
2022/02/11 06:12:08;;;;;;;2.53;1.50;;;;;;;-0.57;100.00;99005.31;4171130;28;20029;-72
2022/02/11 06:14:09;;;;;;;6.75;2.33;;;;;;;-0.58;100.00;99013.72;4170145;28;20031;-72
2022/02/11 06:16:09;;;;;;;4.38;2.20;;;;;;;-0.61;100.00;99006.97;4170279;28;20037;-72
2022/02/11 06:18:10;;;;;;;6.53;2.03;;;;;;;-0.58;100.00;99014.56;4170057;28;20116;-71
2022/02/11 06:20:10;;;;;;;3.60;2.20;;;;;;;-0.59;100.00;99017.56;4170009;28;20083;-71
2022/02/11 06:22:11;;;;;;;4.25;2.20;;;;;;;-0.58;100.00;99013.72;4170279;28;20140;-72
2022/02/11 06:24:12;;;;;;;3.47;1.90;;;;;;;-0.56;100.00;99016.97;4170562;28;20119;-72
2022/02/11 06:26:12;;;;;;;8.32;3.15;;;;;;;-0.58;100.00;99019.16;4169801;28;20505;-72
2022/02/11 06:28:14;;;;;;;3.70;2.45;;;;;;;-0.55;100.00;99021.31;4168323;28;20123;-72
2022/02/11 06:30:14;;;;;;;6.05;2.75;;;;;;;-0.50;100.00;99025.84;4169497;28;20037;-72
2022/02/11 06:32:15;;;;;;;4.15;2.83;;;;;;;-0.45;100.00;99025.81;4170081;28;20071;-72
2022/02/11 06:34:15;;;;;;;4.78;2.60;;;;;;;-0.46;100.00;99030.44;4169712;28;20124;-72
2022/02/11 06:36:15;;;;;;;5.72;3.25;;;;;;;-0.45;100.00;99042.94;4169123;28;20072;-72
2022/02/11 06:38:17;;;;;;;4.45;3.33;;;;;;;-0.46;100.00;99035.06;4168973;28;20614;-71
2022/02/11 06:40:17;;;;;;;4.55;2.97;;;;;;;-0.46;100.00;99048.66;4169462;28;20033;-72
2022/02/11 06:42:18;;;;;;;6.50;3.53;;;;;;;-0.43;100.00;99040.72;4169582;28;20085;-72
2022/02/11 06:44:18;;;;;;;8.07;3.85;;;;;;;-0.38;100.00;99048.81;4169883;28;20033;-72
2022/02/11 06:46:21;;;;;;;5.65;4.15;;;;;;;-0.36;100.00;99056.66;4170118;28;20033;-72
2022/02/11 06:48:23;;;;;;;7.32;4.30;;;;;;;-0.33;100.00;99047.94;4169037;28;20929;-72
2022/02/11 06:50:24;;;;;;;6.95;4.35;;;;;;;-0.31;100.00;99048.47;4169636;28;20048;-72
2022/02/11 06:52:24;;;;;;;6.03;4.50;;;;;;;-0.31;100.00;99053.91;4169692;28;20053;-71
2022/02/11 06:54:25;;;;;;;6.38;3.83;;;;;;;-0.25;100.00;99058.16;4170408;28;20484;-72
2022/02/11 06:56:25;;;;;;;8.43;4.75;;;;;;;-0.26;100.00;99051.09;4169205;28;20049;-72
2022/02/11 06:58:26;;;;;;;6.97;3.80;;;;;;;-0.32;100.00;99061.25;4169286;28;20441;-72
2022/02/11 07:00:26;;;;;;;5.30;3.80;;;;;;;-0.31;100.00;99070.22;4170116;28;20387;-72
2022/02/11 07:02:28;;;;;;;5.65;3.67;;;;;;;-0.33;100.00;99069.72;4169824;28;20056;-72
2022/02/11 07:04:29;;;;;;;9.80;4.55;;;;;;;-0.34;100.00;99070.78;4169682;28;20456;-72
2022/02/11 07:06:29;;;;;;;5.75;3.90;;;;;;;-0.32;99.49;99072.13;4169348;28;20328;-72
2022/02/11 07:08:30;;;;;;;5.97;3.60;;;;;;;-0.26;98.93;99072.84;4169448;28;20033;-72
2022/02/11 07:10:30;;;;;;;8.50;4.03;;;;;;;-0.28;100.00;99075.88;4169192;28;20060;-72
2022/02/11 07:12:31;;;;;;;9.93;4.63;;;;;;;-0.18;97.95;99066.75;4169751;28;20351;-72
2022/02/11 07:14:32;;;;;;;6.88;3.70;;;;;;;-0.20;98.59;99066.25;4170060;28;20378;-72
2022/02/11 07:16:32;;;;;;;5.30;3.58;;;;;;;-0.11;96.92;99067.19;4168872;28;20580;-72
2022/02/11 07:18:32;;;;;;;8.43;3.28;;;;;;;-0.07;97.08;99070.97;4169395;28;20134;-72
2022/02/11 07:20:32;;;;;;;5.63;3.47;;;;;;;-0.05;96.58;99063.31;4169822;28;20047;-72
2022/02/11 07:22:37;;;;;;;7.65;4.43;;;;;;;0.01;95.59;99065.97;4169518;28;20124;-72
2022/02/11 07:24:37;;;;;;;8.15;3.60;;;;;;;-0.05;96.47;99065.22;4169348;28;20187;-72
2022/02/11 07:26:38;;;;;;;7.13;3.60;;;;;;;-0.04;96.38;99066.84;4168803;28;20088;-72
2022/02/11 07:28:38;;;;;;;5.50;3.63;;;;;;;0.05;96.15;99072.44;4169955;28;20049;-72
2022/02/11 07:30:38;;;;;;;8.00;3.97;;;;;;;0.04;96.09;99071.63;4169267;28;20059;-72
2022/02/11 07:32:39;;;;;;;7.03;4.18;;;;;;;0.05;95.99;99069.72;4169770;28;20452;-72
2022/02/11 07:34:39;;;;;;;5.53;3.90;;;;;;;0.07;95.81;99073.75;4169923;28;20231;-72
2022/02/11 07:36:39;;;;;;;4.43;3.30;;;;;;;0.12;95.17;99081.03;4168968;28;20044;-72
2022/02/11 07:38:40;;;;;;;5.72;3.78;;;;;;;0.16;94.86;99079.34;4169590;28;20127;-72
2022/02/11 07:40:40;;;;;;;6.07;4.25;;;;;;;0.19;94.34;99073.31;4169197;28;20130;-72
2022/02/11 07:42:47;;;;;;;6.00;3.65;;;;;;;0.23;94.98;99083.31;4169840;28;20144;-72
2022/02/11 07:44:48;;;;;;;5.90;3.63;;;;;;;0.30;92.71;99077.50;4169771;28;20052;-72
2022/02/11 07:46:48;;;;;;;6.75;3.25;;;;;;;0.27;94.19;99067.22;4168604;28;20582;-72
2022/02/11 07:48:50;;;;;;;5.63;4.00;;;;;;;0.32;93.60;99080.72;4169349;28;20059;-72
2022/02/11 07:50:51;;;;;;;10.05;4.63;;;;;;;0.41;92.43;99078.13;4169692;28;20307;-72
2022/02/11 07:52:52;;;;;;;6.47;4.30;;;;;;;0.36;92.89;99068.16;4169192;28;20057;-72
2022/02/11 07:54:53;;;;;;;6.28;4.10;;;;;;;0.32;93.18;99060.84;4169117;28;20045;-72
2022/02/11 07:56:54;;;;;;;7.38;3.90;;;;;;;0.32;93.20;99067.09;4170027;28;20203;-72
2022/02/11 07:58:54;;;;;;;7.28;3.97;;;;;;;0.37;92.51;99066.22;4172868;28;20444;-72
2022/02/11 08:00:55;;;;;;;5.65;3.55;;;;;;;0.37;92.33;99068.94;4172209;28;20137;-72
2022/02/11 08:02:55;;;;;;;8.38;4.70;;;;;;;0.42;92.00;99077.06;4172313;28;20502;-72
2022/02/11 08:04:56;;;;;;;12.13;5.85;;;;;;;0.36;92.64;99067.34;4172818;28;20068;-72
2022/02/11 08:06:56;;;;;;;8.15;5.43;;;;;;;0.34;93.73;99078.53;4171699;28;20118;-72
2022/02/11 08:08:56;;;;;;;7.43;4.88;;;;;;;0.39;92.22;99089.31;4172327;28;20073;-72
2022/02/11 08:10:57;;;;;;;8.35;4.40;;;;;;;0.47;91.35;99080.47;4172703;28;20080;-72
2022/02/11 08:12:58;;;;;;;9.93;4.45;;;;;;;0.43;92.40;99084.91;4172143;28;20416;-72
2022/02/11 08:14:58;;;;;;;8.55;4.47;;;;;;;0.48;91.70;99081.28;4172440;28;20044;-72
2022/02/11 08:16:58;;;;;;;9.27;5.00;;;;;;;0.57;91.49;99098.56;4171247;28;20481;-72
2022/02/11 08:18:59;;;;;;;11.43;6.30;;;;;;;0.56;92.27;99097.75;4172415;28;20532;-71
2022/02/11 08:20:59;;;;;;;10.63;5.60;;;;;;;0.65;90.87;99103.34;4172080;28;20138;-72
2022/02/11 08:23:00;;;;;;;9.73;5.50;;;;;;;0.78;90.69;99093.59;4171930;28;20121;-72
2022/02/11 08:25:00;;;;;;;11.50;6.90;;;;;;;0.82;90.36;99113.69;4172682;28;20064;-72
2022/02/11 08:27:00;;;;;;;8.98;5.60;;;;;;;0.87;90.71;99115.53;4169828;28;20045;-71
2022/02/11 08:29:02;;;;;;;11.13;4.90;;;;;;;0.88;91.24;99109.75;4172047;28;20559;-71
2022/02/11 08:31:03;;;;;;;6.75;4.78;;;;;;;0.92;90.93;99118.16;4172108;28;20044;-71
2022/02/11 08:33:04;;;;;;;14.02;6.10;;;;;;;0.90;91.21;99115.72;4172355;28;20055;-71
2022/02/11 08:35:05;;;;;;;8.68;5.43;;;;;;;0.93;91.29;99123.31;4171779;28;20045;-71
2022/02/11 08:37:06;;;;;;;8.38;4.72;;;;;;;0.98;91.72;99111.50;4171111;28;20492;-70
2022/02/11 08:39:06;;;;;;;8.63;5.43;;;;;;;1.06;91.48;99117.06;4171708;28;20333;-70
2022/02/11 08:41:07;;;;;;;10.38;4.88;;;;;;;1.16;91.01;99113.38;4172054;28;20066;-72
2022/02/11 08:43:08;;;;;;;7.68;4.72;;;;;;;1.31;90.38;99123.16;4171686;28;20037;-72
2022/02/11 08:45:09;;;;;;;11.52;4.63;;;;;;;1.31;90.65;99123.97;4171942;28;20041;-72
2022/02/11 08:47:09;;;;;;;10.35;5.55;;;;;;;1.32;90.68;99130.22;4171650;28;20036;-72
2022/02/11 08:49:09;;;;;;;9.25;5.13;;;;;;;1.35;89.78;99129.66;4171280;28;20045;-71
2022/02/11 08:51:10;;;;;;;12.20;5.40;;;;;;;1.34;90.29;99137.03;4171545;28;20049;-72
2022/02/11 08:53:10;;;;;;;9.52;4.72;;;;;;;1.36;90.25;99148.41;4171623;28;20449;-71
2022/02/11 08:55:11;;;;;;;13.50;4.72;;;;;;;1.47;89.70;99137.31;4171753;28;20426;-72
2022/02/11 08:57:11;;;;;;;8.55;4.97;;;;;;;1.51;89.73;99141.06;4171232;28;20140;-72
2022/02/11 08:59:11;;;;;;;9.23;4.93;;;;;;;1.57;90.27;99140.69;4171860;28;20041;-72
2022/02/11 09:01:12;;;;;;;12.60;4.90;;;;;;;1.65;90.17;99142.66;4171582;28;20045;-72
2022/02/11 09:03:12;;;;;;;10.07;4.60;;;;;;;1.64;90.84;99142.97;4171771;28;20109;-72
2022/02/11 09:05:13;;;;;;;10.15;4.35;;;;;;;1.62;89.82;99145.22;4171676;28;20080;-72
2022/02/11 09:07:16;;;;;;;8.15;5.13;;;;;;;1.68;90.35;99157.66;4170570;28;20041;-71
2022/02/11 09:09:16;;;;;;;9.00;5.05;;;;;;;1.67;91.20;99161.50;4170421;28;20144;-71
2022/02/11 09:11:19;;;;;;;7.00;4.85;;;;;;;1.80;90.03;99159.84;4171441;28;20555;-72
2022/02/11 09:13:22;;;;;;;11.65;4.55;;;;;;;1.87;88.42;99160.25;4171184;28;20306;-72
2022/02/11 09:15:24;;;;;;;7.28;4.30;;;;;;;1.93;87.80;99161.78;4171859;28;20721;-72
2022/02/11 09:17:24;;;;;;;8.73;4.78;;;;;;;2.02;88.66;99167.34;4171059;28;20048;-72
2022/02/11 09:19:25;;;;;;;7.10;4.72;;;;;;;2.07;89.41;99164.47;4171512;28;20503;-72
2022/02/11 09:21:25;;;;;;;10.23;5.05;;;;;;;2.16;89.09;99171.66;4171262;28;20053;-72
2022/02/11 09:23:25;;;;;;;9.75;4.82;;;;;;;2.18;88.59;99171.34;4171192;28;20128;-72
2022/02/11 09:25:26;;;;;;;11.50;5.80;;;;;;;2.21;88.77;99166.09;4171489;28;20080;-72
2022/02/11 09:27:27;;;;;;;8.95;4.85;;;;;;;2.28;87.65;99182.06;4170400;28;20515;-71
2022/02/11 09:29:27;;;;;;;8.80;4.70;;;;;;;2.36;87.56;99175.88;4171487;28;20052;-72
2022/02/11 09:31:27;;;;;;;8.30;4.82;;;;;;;2.43;87.46;99189.09;4171249;28;20136;-72
2022/02/11 09:33:28;;;;;;;5.45;4.00;;;;;;;2.49;87.16;99185.16;4171293;28;20400;-72
2022/02/11 09:35:29;;;;;;;6.70;4.00;;;;;;;2.52;86.11;99187.25;4171164;28;20775;-72
2022/02/11 09:37:29;;;;;;;7.65;4.25;;;;;;;2.51;86.40;99182.91;4170440;28;20064;-72
2022/02/11 09:39:29;;;;;;;8.35;4.18;;;;;;;2.42;87.10;99182.84;4170956;28;20437;-72
2022/02/11 09:41:31;;;;;;;9.75;4.25;;;;;;;2.42;85.83;99191.03;4171300;28;20059;-72
2022/02/11 09:43:31;;;;;;;7.47;4.03;;;;;;;2.48;85.11;99176.16;4171581;28;20064;-71
2022/02/11 09:45:32;;;;;;;5.28;3.53;;;;;;;2.48;85.64;99195.28;4171184;28;20051;-71
2022/02/11 09:47:34;;;;;;;5.40;3.50;;;;;;;2.55;85.23;99200.28;4170465;28;20285;-72
2022/02/11 09:49:34;;;;;;;4.63;3.65;;;;;;;2.52;85.29;99190.81;4171452;28;20705;-72
2022/02/11 09:51:35;;;;;;;7.07;3.92;;;;;;;2.55;85.75;99200.28;4170440;28;20045;-72
2022/02/11 09:53:35;;;;;;;4.75;3.10;;;;;;;2.52;85.49;99204.47;4170889;28;20048;-72
2022/02/11 09:55:40;;;;;;;6.05;3.50;;;;;;;2.56;85.29;99212.03;4171106;28;20037;-72
2022/02/11 09:57:42;;;;;;;4.65;2.92;;;;;;;2.53;86.35;99208.00;4170355;28;20293;-72
2022/02/11 09:59:42;;;;;;;6.18;3.53;;;;;;;2.57;84.93;99221.88;4171047;28;20053;-72
2022/02/11 10:01:44;;;;;;;4.97;3.45;;;;;;;2.54;86.37;99223.28;4170936;28;20432;-72
2022/02/11 10:03:44;;;;;;;4.85;3.83;;;;;;;2.55;85.46;99224.88;4170863;28;20501;-72
2022/02/11 10:05:47;;;;;;;9.68;4.53;;;;;;;2.47;86.48;99222.88;4170391;28;20060;-72
2022/02/11 10:07:48;;;;;;;5.68;3.65;;;;;;;2.49;85.38;99215.22;4169962;28;20408;-72
2022/02/11 10:09:49;;;;;;;7.20;3.75;;;;;;;2.55;85.65;99222.16;4170452;28;20136;-72
2022/02/11 10:11:51;;;;;;;4.93;3.47;;;;;;;2.62;84.82;99227.19;4170502;28;20047;-72
2022/02/11 10:13:54;;;;;;;7.20;3.90;;;;;;;2.66;85.20;99223.56;4170780;28;20053;-72
2022/02/11 10:15:59;;;;;;;4.80;3.90;;;;;;;2.70;85.85;99229.19;4170151;28;20041;-72
2022/02/11 10:17:59;;;;;;;7.70;3.47;;;;;;;2.72;84.82;99229.69;4169470;28;20049;-72
2022/02/11 10:20:00;;;;;;;5.00;3.42;;;;;;;2.74;84.81;99233.75;4169595;28;20044;-72
2022/02/11 10:22:14;;;;;;;5.10;3.50;;;;;;;2.78;84.45;99242.13;4170454;28;20052;-72
2022/02/11 10:24:26;;;;;;;5.85;3.85;;;;;;;2.79;85.12;99238.28;4169816;28;20389;-72
2022/02/11 10:26:27;;;;;;;6.80;3.67;;;;;;;2.87;84.47;99250.41;4170165;28;20382;-72
2022/02/11 10:28:29;;;;;;;7.38;4.70;;;;;;;2.96;84.12;99248.56;4169730;28;20037;-72
2022/02/11 10:30:29;;;;;;;6.03;4.37;;;;;;;2.93;85.24;99240.97;4169936;28;20049;-72
2022/02/11 10:32:46;;;;;;;7.43;4.68;;;;;;;2.97;83.81;99255.63;4170498;28;20290;-72
2022/02/11 10:34:54;;;;;;;5.53;4.10;;;;;;;2.90;84.73;99258.00;4169912;28;20501;-72
2022/02/11 10:36:54;;;;;;;11.38;6.53;;;;;;;2.91;84.46;99259.63;4169394;28;20041;-72
2022/02/11 10:39:12;;;;;;;7.75;4.85;;;;;;;2.88;84.70;99258.28;4170183;28;20603;-72
2022/02/11 10:41:20;;;;;;;5.57;3.63;;;;;;;2.81;84.65;99257.91;4169813;28;20131;-72
2022/02/11 10:43:29;;;;;;;6.55;4.18;;;;;;;2.85;84.76;99256.19;4169817;28;20056;-72
2022/02/11 10:45:39;;;;;;;7.97;4.03;;;;;;;2.83;84.71;99255.69;4169956;28;20464;-72
2022/02/11 10:47:40;;;;;;;10.65;6.03;;;;;;;2.88;84.04;99255.56;4169651;28;20523;-72
2022/02/11 10:49:48;;;;;;;9.77;5.60;;;;;;;3.02;82.65;99256.34;4169607;28;20204;-72
2022/02/11 10:51:49;;;;;;;5.78;4.43;;;;;;;3.09;82.81;99264.13;4170038;28;20400;-72
2022/02/11 10:53:49;;;;;;;7.55;3.22;;;;;;;3.16;82.02;99252.75;4169780;28;20144;-72
2022/02/11 10:55:51;;;;;;;8.52;4.78;;;;;;;3.29;81.98;99268.28;4170058;28;20076;-72
2022/02/11 10:57:57;;;;;;;7.30;4.00;;;;;;;3.34;81.58;99259.97;4169553;28;20044;-72
2022/02/11 11:00:00;;;;;;;5.97;3.47;;;;;;;3.42;80.84;99244.72;4169690;28;20404;-72
2022/02/11 11:02:06;;;;;;;7.30;2.97;;;;;;;3.55;79.08;99246.56;4169532;28;20509;-73
2022/02/11 11:04:06;;;;;;;4.88;3.20;;;;;;;3.60;78.93;99260.94;4169790;28;20033;-72
2022/02/11 11:06:10;;;;;;;4.72;2.92;;;;;;;3.67;80.13;99272.25;4169561;28;20040;-72
2022/02/11 11:08:12;;;;;;;3.58;2.83;;;;;;;3.66;78.07;99267.09;4169235;28;20029;-72
2022/02/11 11:10:14;;;;;;;3.53;2.58;;;;;;;3.62;79.72;99266.09;4169734;28;20029;-72
2022/02/11 11:12:18;;;;;;;3.70;2.17;;;;;;;3.51;79.81;99271.03;4169663;28;20079;-72
2022/02/11 11:14:19;;;;;;;6.15;2.80;;;;;;;3.58;77.55;99276.06;4169821;28;20037;-72
2022/02/11 11:16:21;;;;;;;5.30;2.28;;;;;;;3.56;78.82;99259.16;4169696;28;20033;-72
2022/02/11 11:18:21;;;;;;;4.40;2.60;;;;;;;3.45;80.25;99268.72;4169145;28;20392;-72
2022/02/11 11:20:25;;;;;;;3.33;2.30;;;;;;;3.38;79.45;99272.69;4169447;28;20041;-72
2022/02/11 11:22:36;;;;;;;4.57;2.50;;;;;;;3.36;80.10;99285.06;4169726;28;20041;-72
2022/02/11 11:24:47;;;;;;;3.35;2.53;;;;;;;3.24;80.80;99271.16;4168863;28;20041;-72
2022/02/11 11:26:47;;;;;;;3.47;2.33;;;;;;;3.16;80.69;99272.69;4169073;28;20051;-72
2022/02/11 11:28:52;;;;;;;3.78;2.38;;;;;;;3.21;79.33;99255.34;4169432;28;20131;-72
2022/02/11 11:30:54;;;;;;;2.33;2.13;;;;;;;3.18;80.56;99284.13;4169417;28;20495;-72
2022/02/11 11:33:06;;;;;;;3.47;2.40;;;;;;;3.12;81.62;99284.56;4172591;28;20040;-72
2022/02/11 11:35:07;;;;;;;2.78;2.30;;;;;;;3.12;79.94;99276.34;4172997;28;20052;-72
2022/02/11 11:37:11;;;;;;;4.47;2.10;;;;;;;3.14;79.18;99294.06;4172287;28;20452;-72
2022/02/11 11:39:12;;;;;;;3.33;2.10;;;;;;;3.17;78.84;99298.13;4172668;28;20055;-72
2022/02/11 11:41:19;;;;;;;2.03;1.63;;;;;;;3.13;80.08;99300.66;4172796;28;20128;-72
2022/02/11 11:43:31;;;;;;;4.05;2.25;;;;;;;3.16;80.12;99285.56;4173082;28;20140;-72
2022/02/11 11:45:31;;;;;;;5.13;2.22;;;;;;;3.17;79.25;99318.06;4172652;28;20052;-72
2022/02/11 11:47:38;;;;;;;3.97;2.17;;;;;;;3.16;80.11;99310.19;4171796;28;20405;-72
2022/02/11 11:49:47;;;;;;;4.65;2.50;;;;;;;3.13;81.43;99316.25;4173069;28;20116;-72
2022/02/11 11:51:48;;;;;;;5.60;3.53;;;;;;;3.08;81.49;99322.66;4172734;28;20064;-72
2022/02/11 11:53:48;;;;;;;3.28;2.10;;;;;;;3.09;81.70;99322.34;4172570;28;20290;-72
2022/02/11 11:55:48;;;;;;;3.97;2.50;;;;;;;3.08;82.25;99319.91;4172415;28;20135;-72
2022/02/11 11:57:50;;;;;;;4.82;2.72;;;;;;;3.08;81.83;99319.91;4172094;28;20041;-72
2022/02/11 11:59:55;;;;;;;4.80;2.47;;;;;;;3.08;80.63;99328.13;4172423;28;20053;-72
2022/02/11 12:02:00;;;;;;;5.80;2.28;;;;;;;3.16;80.18;99335.59;4172134;28;20409;-72
2022/02/11 12:04:17;;;;;;;4.90;2.75;;;;;;;3.14;81.08;99328.78;4172278;28;20095;-72
2022/02/11 12:06:20;;;;;;;3.95;2.35;;;;;;;3.14;81.05;99332.34;4172649;28;20307;-72
2022/02/11 12:08:22;;;;;;;4.20;2.13;;;;;;;3.18;79.93;99318.88;4172116;28;20459;-72
2022/02/11 12:10:23;;;;;;;7.00;3.42;;;;;;;3.19;80.71;99315.81;4172509;28;20124;-72
2022/02/11 12:12:29;;;;;;;3.53;1.88;;;;;;;3.25;79.99;99317.34;4172215;28;20508;-72
2022/02/11 12:14:32;;;;;;;7.13;3.10;;;;;;;3.26;81.83;99326.34;4172385;28;20136;-72
2022/02/11 12:16:32;;;;;;;;;;;;;;;3.24;81.27;99317.66;4171644;28;20582;-72
2022/02/11 12:18:32;;;;;;;5.28;2.03;;;;;;;3.24;80.74;99315.72;4171073;28;19916;-72
2022/02/11 12:20:32;;;;;;;5.05;2.78;;;;;;;3.24;81.32;99315.72;4172249;28;20056;-72
2022/02/11 12:22:33;;;;;;;4.93;2.17;;;;;;;3.21;82.12;99313.59;4172272;28;20540;-72
2022/02/11 12:29:15;;;;;;;3.58;2.25;;;;;;;3.20;81.89;99320.19;4172221;28;20052;-72
2022/02/11 12:31:26;;;;;;;3.92;1.80;;;;;;;3.26;80.88;99308.00;4171936;28;20041;-72
2022/02/11 12:33:26;;;;;;;2.42;1.60;;;;;;;3.34;80.91;99307.28;4171995;28;20151;-72
2022/02/11 12:35:29;;;;;;;3.33;1.77;;;;;;;3.36;81.35;99305.03;4172263;28;20075;-72
2022/02/11 12:37:31;;;;;;;4.90;1.90;;;;;;;3.37;80.76;99309.38;4170807;28;20048;-72
2022/02/11 12:39:32;;;;;;;1.98;1.48;;;;;;;3.45;79.54;99317.97;4172077;28;20460;-72
2022/02/11 12:41:46;;;;;;;2.00;1.73;;;;;;;3.44;80.58;99305.41;4172010;28;20090;-72
2022/02/11 12:43:57;;;;;;;5.22;1.98;;;;;;;3.51;79.81;99317.53;4171662;28;20044;-72
2022/02/11 12:45:57;;;;;;;3.92;1.95;;;;;;;3.52;80.70;99310.13;4171596;28;20092;-72
2022/02/11 12:47:59;;;;;;;3.85;1.80;;;;;;;3.41;79.53;99323.25;4171030;28;20049;-72
2022/02/11 12:50:00;;;;;;;5.47;1.80;;;;;;;3.48;79.72;99317.34;4171837;28;20056;-72
2022/02/11 12:52:01;;;;;;;6.20;1.77;;;;;;;3.55;79.83;99315.78;4171691;28;20049;-73
2022/02/11 12:54:05;;;;;;;4.65;1.67;;;;;;;3.57;78.88;99334.63;4171388;28;20033;-72
2022/02/11 12:56:11;;;;;;;4.45;1.73;;;;;;;3.63;78.65;99323.25;4171603;28;20025;-73
2022/02/11 12:58:13;;;;;;;4.13;1.48;;;;;;;3.67;78.70;99340.66;4170467;28;20474;-72
2022/02/11 13:00:17;;;;;;;5.22;2.10;;;;;;;3.71;78.46;99338.09;4171345;28;20041;-72
2022/02/11 13:02:30;;;;;;;5.97;1.58;;;;;;;3.71;78.78;99323.63;4171879;28;20047;-72
2022/02/11 13:04:30;;;;;;;;;;;;;;;3.68;78.00;99333.25;4171929;28;20049;-72
2022/02/11 13:06:32;;;;;;;3.20;1.40;;;;;;;3.64;78.14;99333.09;4171796;28;20081;-72
2022/02/11 13:08:33;;;;;;;3.85;1.65;;;;;;;3.70;78.41;99341.97;4171620;28;20093;-72
2022/02/11 13:10:39;;;;;;;3.65;2.00;;;;;;;3.77;78.52;99345.06;4171494;28;20496;-72
2022/02/11 13:12:41;;;;;;;5.65;1.90;;;;;;;3.78;77.63;99349.44;4171430;28;20738;-71
2022/02/11 13:14:43;;;;;;;4.90;1.70;;;;;;;3.80;77.96;99344.44;4170981;28;20204;-72
2022/02/11 13:16:45;;;;;;;4.03;1.88;;;;;;;3.83;77.96;99335.63;4170904;28;20477;-72
2022/02/11 13:18:46;;;;;;;3.95;2.05;;;;;;;3.87;77.92;99338.53;4171338;28;20059;-72
2022/02/11 13:21:09;;;;;;;11.95;4.32;;;;;;;3.88;76.74;99353.84;4171479;28;20490;-72
2022/02/11 13:23:14;;;;;;;10.40;5.03;;;;;;;3.97;78.02;99357.44;4170326;28;20084;-72
2022/02/11 13:25:16;;;;;;;12.48;5.07;;;;;;;4.00;77.99;99361.50;4171271;28;20049;-72
2022/02/11 13:27:17;;;;;;;4.00;2.70;;;;;;;3.85;79.19;99359.94;4170839;28;20051;-72
2022/02/11 13:29:18;;;;;;;14.75;6.28;;;;;;;3.93;80.89;99351.78;4170982;28;20076;-72